Time;durP1;ratioP1;P1;durP2;ratioP2;P2;SDS_P1;SDS_P2;PMS_P1;PMS_P2;Temp;Humidity;BMP_temperature;BMP_pressure;BME280_temperature;BME280_humidity;BME280_pressure;Samples;Min_cycle;Max_cycle;Signal;HPM_P1;HPM_P2
2021/08/16 00:02:07;;;;;;;9.10;6.27;;;;;;;22.63;54.35;101104.16;5053087;28;20246;-61
2021/08/16 00:04:33;;;;;;;10.03;5.87;;;;;;;23.07;53.65;101158.09;5066321;28;20175;-61
2021/08/16 00:06:58;;;;;;;9.00;6.13;;;;;;;23.15;53.22;101159.16;5073320;28;20190;-61
2021/08/16 00:09:24;;;;;;;12.73;6.20;;;;;;;23.21;53.07;101160.78;5073009;28;20594;-61
2021/08/16 00:11:49;;;;;;;8.13;5.87;;;;;;;23.18;53.12;101146.88;5072862;28;20172;-61
2021/08/16 00:14:15;;;;;;;9.83;6.20;;;;;;;22.99;52.86;101117.47;5072900;28;20175;-61
2021/08/16 00:16:41;;;;;;;20.23;6.90;;;;;;;22.69;52.79;101059.75;5072804;28;20233;-61
2021/08/16 00:19:07;;;;;;;9.57;5.63;;;;;;;23.31;51.45;101164.16;5072833;28;20179;-61
2021/08/16 00:21:32;;;;;;;12.90;6.43;;;;;;;23.31;52.23;101155.69;5072661;28;20256;-61
2021/08/16 00:23:58;;;;;;;17.20;7.03;;;;;;;23.39;52.40;101160.34;5072748;28;20641;-61
2021/08/16 00:26:23;;;;;;;8.27;5.83;;;;;;;23.31;50.69;101139.50;5072653;28;20227;-61
2021/08/16 00:28:49;;;;;;;18.17;7.00;;;;;;;23.45;51.97;101154.72;5056602;28;20247;-61
2021/08/16 00:31:14;;;;;;;21.13;7.17;;;;;;;23.47;51.88;101155.75;5052585;28;20188;-61
2021/08/16 00:33:40;;;;;;;12.40;6.00;;;;;;;23.48;51.60;101160.13;5052619;28;20189;-61
2021/08/16 00:36:05;;;;;;;12.10;6.13;;;;;;;23.47;51.74;101158.59;5052392;28;20208;-61
2021/08/16 00:38:31;;;;;;;8.17;5.70;;;;;;;23.43;51.65;101158.03;5052397;28;20199;-61
2021/08/16 00:40:57;;;;;;;7.13;5.70;;;;;;;23.38;50.77;101158.03;5052408;28;20180;-61
2021/08/16 00:43:22;;;;;;;9.13;5.67;;;;;;;23.37;51.69;101157.25;5052090;28;20220;-61
2021/08/16 00:45:48;;;;;;;12.83;5.77;;;;;;;22.98;51.79;101091.22;5052127;28;20243;-61
2021/08/16 00:48:14;;;;;;;9.23;5.07;;;;;;;23.33;51.83;101155.97;5052269;28;20187;-61
2021/08/16 00:50:41;;;;;;;10.17;5.30;;;;;;;22.97;51.66;101094.59;5052216;28;20544;-61
2021/08/16 00:53:06;;;;;;;6.20;5.17;;;;;;;23.16;52.02;101126.78;5051981;28;20187;-61
2021/08/16 00:55:33;;;;;;;5.73;5.00;;;;;;;23.18;52.34;101142.00;5052261;28;20172;-61
2021/08/16 00:58:00;;;;;;;7.53;6.33;;;;;;;23.00;52.19;101105.66;5051896;28;20187;-61
2021/08/16 01:00:27;;;;;;;6.80;5.20;;;;;;;22.86;52.25;101098.13;5051813;28;20669;-61
2021/08/16 01:02:52;;;;;;;8.60;5.50;;;;;;;23.02;52.18;101134.16;5051250;28;20180;-61
2021/08/16 01:05:19;;;;;;;8.73;5.97;;;;;;;22.69;52.66;101090.81;5051598;28;20207;-61
2021/08/16 01:07:48;;;;;;;7.80;5.43;;;;;;;22.98;52.91;101152.66;5051952;28;20662;-61
2021/08/16 01:10:15;;;;;;;9.50;6.30;;;;;;;22.88;52.68;101154.91;5051915;28;20230;-61
2021/08/16 01:12:40;;;;;;;8.03;5.97;;;;;;;22.81;53.23;101155.38;5051848;28;20618;-61
2021/08/16 01:15:11;;;;;;;8.50;6.17;;;;;;;22.52;53.71;101155.66;5051850;28;20176;-61
2021/08/16 01:17:37;;;;;;;7.90;5.83;;;;;;;22.31;54.04;101150.59;5051752;28;20215;-61
2021/08/16 01:20:09;;;;;;;7.67;6.70;;;;;;;22.33;54.56;101153.69;5051875;28;20180;-61
2021/08/16 01:22:35;;;;;;;8.13;7.30;;;;;;;22.32;54.99;101152.16;5051814;28;20207;-61
2021/08/16 01:25:02;;;;;;;14.53;8.40;;;;;;;22.28;55.37;101143.13;5050422;28;20220;-61
2021/08/16 01:27:28;;;;;;;13.03;8.47;;;;;;;21.94;55.62;101102.53;5051540;28;20176;-61
2021/08/16 01:29:54;;;;;;;12.80;8.03;;;;;;;22.17;55.76;101143.81;5051668;28;20672;-61
2021/08/16 01:32:20;;;;;;;10.70;8.40;;;;;;;22.15;55.86;101148.41;5057116;28;20183;-61
2021/08/16 01:34:45;;;;;;;10.00;7.90;;;;;;;22.07;56.16;101144.47;5071572;28;20180;-61
2021/08/16 01:37:11;;;;;;;12.77;7.60;;;;;;;22.07;56.16;101148.09;5071447;28;20187;-61
2021/08/16 01:39:36;;;;;;;10.20;6.63;;;;;;;22.03;55.92;101156.00;5065604;28;20193;-61
2021/08/16 01:42:02;;;;;;;11.37;7.27;;;;;;;21.78;55.85;101125.72;5051423;28;20184;-61
2021/08/16 01:44:27;;;;;;;13.33;7.43;;;;;;;21.80;56.13;101145.75;5051213;28;20250;-61
2021/08/16 01:46:54;;;;;;;11.00;7.17;;;;;;;21.60;56.70;101142.94;5051394;28;20180;-61
2021/08/16 01:49:20;;;;;;;14.07;8.13;;;;;;;20.85;57.11;101049.25;5051133;28;20679;-61
2021/08/16 01:51:47;;;;;;;9.03;7.33;;;;;;;21.49;56.81;101144.88;5051368;28;20219;-61
2021/08/16 01:54:14;;;;;;;9.57;7.43;;;;;;;21.43;57.19;101146.81;5051244;28;20190;-61
2021/08/16 01:56:39;;;;;;;9.93;7.20;;;;;;;21.45;56.88;101150.69;5033343;28;20188;-61
2021/08/16 01:59:06;;;;;;;12.83;7.17;;;;;;;21.40;56.57;101150.66;5051146;28;20191;-61
2021/08/16 02:01:32;;;;;;;13.53;7.47;;;;;;;21.45;56.63;101145.06;5051157;28;20187;-61
2021/08/16 02:03:57;;;;;;;10.27;7.23;;;;;;;21.11;56.64;101092.38;5050974;28;20191;-61
2021/08/16 02:06:23;;;;;;;10.87;6.73;;;;;;;21.45;56.85;101153.50;5051136;28;20219;-61
2021/08/16 02:08:48;;;;;;;10.43;7.47;;;;;;;21.48;56.70;101155.34;5043430;28;20665;-61
2021/08/16 02:11:15;;;;;;;14.53;7.33;;;;;;;21.23;56.50;101105.31;5051065;28;20222;-61
2021/08/16 02:13:40;;;;;;;15.53;7.30;;;;;;;21.39;56.50;101140.66;5053584;28;20262;-61
2021/08/16 02:16:06;;;;;;;15.27;7.83;;;;;;;21.49;56.64;101162.53;5054832;28;20263;-61
2021/08/16 02:18:31;;;;;;;13.80;7.33;;;;;;;21.51;56.29;101159.22;5055121;28;20242;-61
2021/08/16 02:20:57;;;;;;;19.33;7.70;;;;;;;21.52;56.14;101158.75;5055119;28;20565;-61
2021/08/16 02:23:23;;;;;;;16.83;7.70;;;;;;;21.58;56.08;101165.22;5055356;28;20180;-61
2021/08/16 02:25:49;;;;;;;16.57;7.80;;;;;;;21.39;55.86;101124.47;5054998;28;20749;-61
2021/08/16 02:28:16;;;;;;;16.97;7.30;;;;;;;21.44;56.33;101157.59;5065960;28;20223;-61
2021/08/16 02:30:43;;;;;;;11.27;6.53;;;;;;;21.47;55.68;101161.47;5074985;28;20643;-61
2021/08/16 02:33:09;;;;;;;11.20;6.83;;;;;;;21.43;55.74;101160.91;5074823;28;20183;-61
2021/08/16 02:35:35;;;;;;;11.53;6.80;;;;;;;21.40;56.07;101156.28;5074948;28;20638;-61
2021/08/16 02:38:00;;;;;;;7.93;6.67;;;;;;;21.39;55.92;101160.38;5074871;28;20183;-61
2021/08/16 02:40:26;;;;;;;12.83;6.40;;;;;;;21.39;55.56;101161.13;5062033;28;20191;-61
2021/08/16 02:42:51;;;;;;;8.53;6.53;;;;;;;21.41;55.78;101164.25;5054616;28;20251;-61
2021/08/16 02:45:17;;;;;;;9.37;6.37;;;;;;;21.41;55.94;101172.72;5054489;28;20199;-61
2021/08/16 02:47:44;;;;;;;10.13;7.03;;;;;;;21.41;55.97;101160.66;5054577;28;20187;-61
2021/08/16 02:50:09;;;;;;;10.50;6.63;;;;;;;21.44;55.75;101165.31;5054543;28;20669;-61
2021/08/16 02:52:35;;;;;;;13.27;6.97;;;;;;;21.31;55.88;101151.56;5054439;28;20195;-61
2021/08/16 02:55:01;;;;;;;12.07;7.13;;;;;;;21.41;56.04;101164.25;5054622;28;20176;-61
2021/08/16 02:57:27;;;;;;;15.43;7.13;;;;;;;21.42;55.83;101148.88;5054521;28;20195;-61
2021/08/16 02:59:52;;;;;;;11.27;6.70;;;;;;;21.55;55.51;101160.56;5054847;28;20176;-61
2021/08/16 03:02:17;;;;;;;12.50;7.20;;;;;;;21.54;55.44;101170.28;5054319;28;20183;-61
2021/08/16 03:04:43;;;;;;;11.43;7.10;;;;;;;21.50;55.45;101169.72;5054325;28;20208;-61
2021/08/16 03:07:09;;;;;;;14.53;6.90;;;;;;;21.36;55.67;101172.63;5054192;28;20172;-61
2021/08/16 03:09:35;;;;;;;11.63;6.23;;;;;;;21.34;55.68;101175.94;5054472;28;20297;-61
2021/08/16 03:12:00;;;;;;;11.90;6.37;;;;;;;21.17;55.81;101157.25;5054094;28;20371;-61
2021/08/16 03:14:26;;;;;;;9.80;6.53;;;;;;;21.27;55.88;101182.00;5054137;28;20632;-61
2021/08/16 03:16:51;;;;;;;13.60;6.93;;;;;;;21.08;56.44;101172.25;5054067;28;20669;-61
2021/08/16 03:19:17;;;;;;;10.73;6.77;;;;;;;20.49;56.57;101105.28;5052456;28;20732;-61
2021/08/16 03:21:42;;;;;;;14.87;7.97;;;;;;;20.98;56.61;101175.72;5054023;28;20187;-61
2021/08/16 03:24:08;;;;;;;12.90;7.13;;;;;;;20.89;56.95;101167.34;5053084;28;20685;-61
2021/08/16 03:26:33;;;;;;;11.80;6.77;;;;;;;20.94;56.69;101175.13;5053723;28;20221;-61
2021/08/16 03:28:59;;;;;;;11.57;6.97;;;;;;;20.72;56.88;101136.09;5053665;28;20194;-61
2021/08/16 03:31:25;;;;;;;11.77;7.40;;;;;;;20.99;56.95;101174.44;5053592;28;20191;-61
2021/08/16 03:33:50;;;;;;;12.20;7.57;;;;;;;20.81;57.27;101152.09;5071879;28;20193;-61
2021/08/16 03:36:16;;;;;;;10.63;6.97;;;;;;;20.68;57.40;101180.59;5073729;28;20267;-61
2021/08/16 03:38:42;;;;;;;12.40;7.50;;;;;;;20.69;57.82;101176.53;5073826;28;20307;-61
2021/08/16 03:41:07;;;;;;;10.50;7.03;;;;;;;20.67;58.05;101176.22;5055151;28;20191;-61
2021/08/16 03:43:33;;;;;;;9.13;7.83;;;;;;;20.42;57.88;101140.25;5053415;28;20658;-61
2021/08/16 03:45:58;;;;;;;9.57;7.87;;;;;;;20.60;57.83;101173.81;5053478;28;20203;-61
2021/08/16 03:48:24;;;;;;;16.73;8.27;;;;;;;20.57;57.87;101157.13;5053338;28;20190;-61
2021/08/16 03:50:50;;;;;;;12.93;8.10;;;;;;;20.75;57.80;101196.31;5053489;28;20178;-61
2021/08/16 03:53:16;;;;;;;14.10;8.57;;;;;;;20.59;57.92;101160.22;5072902;28;20464;-61
2021/08/16 03:55:42;;;;;;;13.63;8.87;;;;;;;20.78;57.82;101187.66;5073315;28;20601;-61
2021/08/16 03:58:07;;;;;;;11.77;7.93;;;;;;;20.82;57.72;101185.41;5073332;28;20616;-61
2021/08/16 04:00:33;;;;;;;9.90;7.70;;;;;;;20.82;57.62;101188.25;5073184;28;20188;-61
2021/08/16 04:02:58;;;;;;;14.57;7.70;;;;;;;20.64;58.01;101196.94;5073229;28;20216;-61
2021/08/16 04:05:24;;;;;;;11.33;8.10;;;;;;;20.62;58.03;101195.88;5073097;28;20188;-61
2021/08/16 04:07:50;;;;;;;12.83;7.27;;;;;;;20.59;58.08;101194.03;5073104;28;20182;-61
2021/08/16 04:10:16;;;;;;;9.27;7.10;;;;;;;20.70;57.88;101188.56;5073132;28;20181;-61
2021/08/16 04:12:42;;;;;;;11.83;8.00;;;;;;;20.68;57.88;101197.50;5073055;28;20181;-61
2021/08/16 04:15:11;;;;;;;10.40;7.80;;;;;;;20.54;57.82;101163.72;5071044;28;20194;-61
2021/08/16 04:17:36;;;;;;;19.17;8.67;;;;;;;20.71;57.62;101190.88;5052830;28;20199;-61
2021/08/16 04:20:03;;;;;;;15.40;8.70;;;;;;;20.84;57.79;101205.44;5037969;28;20243;-61
2021/08/16 04:22:29;;;;;;;14.30;8.70;;;;;;;20.48;57.54;101151.59;5072819;28;20185;-61
2021/08/16 04:24:55;;;;;;;15.63;8.50;;;;;;;20.88;57.57;101203.19;5072929;28;20774;-61
2021/08/16 04:27:20;;;;;;;11.57;8.00;;;;;;;20.87;58.28;101203.69;5069030;28;20241;-61
2021/08/16 04:29:45;;;;;;;16.50;8.27;;;;;;;20.70;58.72;101214.69;5052658;28;20176;-61
2021/08/16 04:32:11;;;;;;;10.77;8.20;;;;;;;20.70;59.24;101205.47;5052311;28;20617;-61
2021/08/16 04:34:36;;;;;;;14.43;7.37;;;;;;;20.81;57.45;101205.63;5052895;28;20645;-61
2021/08/16 04:37:02;;;;;;;13.30;7.43;;;;;;;20.85;57.54;101201.34;5034738;28;20183;-61
2021/08/16 04:39:27;;;;;;;14.50;7.70;;;;;;;20.90;57.50;101206.34;5052313;28;20198;-61
2021/08/16 04:41:53;;;;;;;14.60;7.77;;;;;;;21.02;56.87;101204.44;5052328;28;20179;-61
2021/08/16 04:44:18;;;;;;;16.83;7.83;;;;;;;21.00;57.01;101196.50;5051851;28;20638;-61
2021/08/16 04:46:44;;;;;;;17.00;9.83;;;;;;;21.20;56.53;101216.25;5044234;28;20284;-61
2021/08/16 04:49:09;;;;;;;19.70;10.50;;;;;;;21.33;56.27;101222.31;5051621;28;20347;-61
2021/08/16 04:51:35;;;;;;;18.30;10.43;;;;;;;21.36;55.99;101218.53;5051371;28;20254;-61
2021/08/16 04:54:01;;;;;;;21.87;10.83;;;;;;;21.51;56.11;101227.69;5037761;28;20198;-61
2021/08/16 04:56:26;;;;;;;18.87;9.87;;;;;;;21.62;56.54;101233.47;5040457;28;20187;-61
2021/08/16 04:58:52;;;;;;;19.23;9.23;;;;;;;21.43;55.38;101181.44;5051556;28;20756;-61
2021/08/16 05:01:17;;;;;;;16.30;8.90;;;;;;;21.80;55.36;101227.56;5051572;28;20259;-61
2021/08/16 05:03:43;;;;;;;18.40;9.00;;;;;;;21.73;55.67;101219.53;5058209;28;20175;-61
2021/08/16 05:06:08;;;;;;;15.97;9.03;;;;;;;21.99;55.73;101237.28;5070745;28;20212;-61
2021/08/16 05:08:36;;;;;;;17.07;9.07;;;;;;;22.11;56.11;101238.94;5062518;28;20180;-61
2021/08/16 05:11:03;;;;;;;22.13;8.83;;;;;;;22.23;55.51;101237.81;5044419;28;20497;-61
2021/08/16 05:13:29;;;;;;;16.43;8.23;;;;;;;22.19;55.91;101223.13;5051205;28;20193;-61
2021/08/16 05:15:55;;;;;;;16.97;8.00;;;;;;;22.47;55.44;101241.13;5051233;28;20686;-61
2021/08/16 05:18:20;;;;;;;15.70;8.30;;;;;;;22.59;56.10;101242.00;5050863;28;20180;-61
2021/08/16 05:20:46;;;;;;;16.97;8.13;;;;;;;22.70;55.57;101251.38;5050737;28;20259;-61
2021/08/16 05:23:12;;;;;;;14.17;7.77;;;;;;;22.32;55.06;101202.97;5051338;28;20242;-61
2021/08/16 05:25:37;;;;;;;12.73;7.47;;;;;;;22.79;55.33;101253.22;5050663;28;20287;-61
2021/08/16 05:28:04;;;;;;;13.27;7.70;;;;;;;22.68;55.56;101224.88;5050516;28;20192;-61
2021/08/16 05:30:30;;;;;;;13.77;8.60;;;;;;;22.73;55.50;101250.34;5050935;28;20176;-61
2021/08/16 05:32:56;;;;;;;14.70;8.70;;;;;;;22.82;55.43;101257.88;5051088;28;20184;-61
2021/08/16 05:35:21;;;;;;;16.53;8.90;;;;;;;22.98;55.05;101251.59;5050948;28;20175;-61
2021/08/16 05:37:47;;;;;;;19.43;7.63;;;;;;;23.10;53.42;101248.34;5069675;28;20186;-61
2021/08/16 05:40:13;;;;;;;19.33;7.97;;;;;;;23.16;53.45;101245.53;5070743;28;20186;-61
2021/08/16 05:42:38;;;;;;;12.30;7.10;;;;;;;23.06;53.33;101216.69;5070595;28;20324;-61
2021/08/16 05:45:07;;;;;;;15.57;7.43;;;;;;;23.39;53.25;101245.19;5070595;28;20580;-61
2021/08/16 05:47:33;;;;;;;19.30;8.23;;;;;;;23.58;53.36;101256.84;5047788;28;20188;-61
2021/08/16 05:50:00;;;;;;;19.07;9.43;;;;;;;23.75;53.79;101260.56;5032511;28;20242;-61
2021/08/16 05:52:25;;;;;;;13.43;7.60;;;;;;;23.90;54.14;101264.00;5050465;28;20204;-61
2021/08/16 05:54:51;;;;;;;15.73;8.13;;;;;;;23.77;54.38;101226.84;5050750;28;20271;-61
2021/08/16 05:57:16;;;;;;;13.37;7.60;;;;;;;24.01;52.36;101269.69;5050031;28;20188;-61
2021/08/16 05:59:42;;;;;;;12.67;7.13;;;;;;;23.92;51.89;101245.22;5050499;28;20204;-61
2021/08/16 06:02:07;;;;;;;15.10;7.40;;;;;;;24.17;51.25;101269.75;5050797;28;20608;-61
2021/08/16 06:04:33;;;;;;;15.33;8.00;;;;;;;23.64;51.76;101169.97;5045725;28;20182;-61
2021/08/16 06:06:58;;;;;;;24.03;8.33;;;;;;;24.38;52.55;101268.25;5050405;28;20542;-61
2021/08/16 06:09:24;;;;;;;14.97;8.03;;;;;;;24.28;50.62;101261.28;5064076;28;20237;-61
2021/08/16 06:11:49;;;;;;;12.00;7.23;;;;;;;24.36;50.05;101261.53;5067263;28;20673;-61
2021/08/16 06:14:15;;;;;;;16.03;7.50;;;;;;;24.19;50.30;101223.91;5050742;28;20184;-61
2021/08/16 06:16:41;;;;;;;12.67;7.43;;;;;;;24.44;49.62;101252.03;5049930;28;20718;-61
2021/08/16 06:19:08;;;;;;;22.20;7.80;;;;;;;24.62;50.05;101260.03;5049993;28;20537;-61
2021/08/16 06:21:35;;;;;;;22.97;8.10;;;;;;;24.87;49.75;101258.25;5049750;28;20180;-61
2021/08/16 06:24:01;;;;;;;17.33;7.30;;;;;;;24.92;49.34;101249.75;5050213;28;20169;-61
2021/08/16 06:26:26;;;;;;;11.97;7.60;;;;;;;24.93;49.44;101253.34;5049517;28;20290;-61
2021/08/16 06:28:52;;;;;;;11.60;7.67;;;;;;;25.06;48.34;101254.38;5049485;28;20195;-61
2021/08/16 06:31:17;;;;;;;12.20;7.70;;;;;;;24.63;48.87;101184.31;5049762;28;20183;-61
2021/08/16 06:33:43;;;;;;;16.00;7.93;;;;;;;25.24;49.04;101256.66;5049873;28;20684;-61
2021/08/16 06:36:08;;;;;;;12.47;7.60;;;;;;;24.83;48.35;101176.28;5031847;28;20253;-61
2021/08/16 06:38:34;;;;;;;10.13;7.17;;;;;;;25.59;48.70;101262.53;5049324;28;20179;-61
2021/08/16 06:41:01;;;;;;;9.93;7.40;;;;;;;25.82;48.21;101260.38;5049496;28;20192;-61
2021/08/16 06:43:28;;;;;;;14.67;7.93;;;;;;;25.88;47.06;101250.53;5049874;28;20278;-61
2021/08/16 06:45:53;;;;;;;11.97;7.27;;;;;;;25.95;47.07;101247.16;5046697;28;20208;-61
2021/08/16 06:48:19;;;;;;;10.30;7.67;;;;;;;25.98;47.34;101246.13;5069271;28;20579;-61
2021/08/16 06:50:45;;;;;;;10.17;7.50;;;;;;;26.13;47.13;101240.09;5069683;28;20172;-61
2021/08/16 06:53:13;;;;;;;13.03;7.47;;;;;;;26.24;46.62;101242.88;5069476;28;20620;-61
2021/08/16 06:55:42;;;;;;;13.90;7.83;;;;;;;26.21;45.57;101232.59;5069315;28;20195;-61
2021/08/16 06:58:08;;;;;;;8.30;7.50;;;;;;;26.17;45.10;101221.50;5049275;28;20185;-61
2021/08/16 07:00:33;;;;;;;11.67;7.50;;;;;;;26.33;45.80;101251.09;5053128;28;20234;-61
2021/08/16 07:03:00;;;;;;;16.43;7.33;;;;;;;26.46;45.80;101248.44;5035245;28;20192;-61
2021/08/16 07:05:25;;;;;;;10.27;8.03;;;;;;;26.30;46.13;101212.38;5055308;28;20243;-61
2021/08/16 07:07:54;;;;;;;13.30;6.83;;;;;;;26.75;45.81;101251.31;5054145;28;20188;-61
2021/08/16 07:10:20;;;;;;;13.63;8.03;;;;;;;26.78;44.96;101253.13;5058164;28;20176;-61
2021/08/16 07:12:46;;;;;;;13.30;7.47;;;;;;;26.75;45.28;101261.91;5052901;28;20673;-61
2021/08/16 07:15:12;;;;;;;12.43;7.50;;;;;;;26.90;45.38;101246.03;5048770;28;20184;-61
2021/08/16 07:17:37;;;;;;;9.60;8.00;;;;;;;26.86;45.11;101247.63;5052334;28;20267;-61
2021/08/16 07:20:04;;;;;;;10.23;7.57;;;;;;;26.62;45.08;101200.00;5056045;28;20262;-61
2021/08/16 07:22:30;;;;;;;14.67;7.67;;;;;;;26.99;45.65;101250.59;5072940;28;20180;-61
2021/08/16 07:24:55;;;;;;;13.57;7.73;;;;;;;26.97;43.95;101242.59;5072868;28;20680;-61
2021/08/16 07:27:21;;;;;;;16.20;7.70;;;;;;;26.87;44.17;101249.16;5071757;28;20180;-61
2021/08/16 07:29:47;;;;;;;12.53;6.90;;;;;;;26.84;44.17;101256.69;5072509;28;20176;-61
2021/08/16 07:32:13;;;;;;;10.57;6.93;;;;;;;26.53;44.55;101196.69;5067315;28;20192;-61
2021/08/16 07:34:38;;;;;;;11.27;6.03;;;;;;;26.94;48.97;101217.28;5051121;28;20542;-66
2021/08/16 07:37:06;;;;;;;11.23;6.50;;;;;;;27.55;44.70;101262.97;5060802;28;20189;-70
2021/08/16 07:39:31;;;;;;;17.47;7.07;;;;;;;27.91;42.85;101247.28;5052076;28;20199;-69
2021/08/16 07:41:57;;;;;;;10.07;6.40;;;;;;;28.14;42.46;101251.38;5070637;28;20178;-65
2021/08/16 07:44:22;;;;;;;10.10;6.57;;;;;;;28.37;39.35;101246.88;5069985;28;20223;-71
2021/08/16 07:46:48;;;;;;;27.73;8.10;;;;;;;28.29;41.73;101245.97;5051107;28;20764;-67
2021/08/16 07:49:13;;;;;;;16.30;7.15;;;;;;;28.26;40.43;101218.56;5070055;28;20179;-66
2021/08/16 07:51:39;;;;;;;12.27;6.93;;;;;;;28.36;38.73;101231.09;5069565;28;20176;-75
2021/08/16 07:54:05;;;;;;;12.05;6.55;;;;;;;28.00;40.31;101152.88;5069016;28;20192;-65
2021/08/16 07:56:30;;;;;;;10.17;6.37;;;;;;;28.73;37.83;101251.78;5063223;28;20188;-70
2021/08/16 07:58:56;;;;;;;10.02;6.10;;;;;;;28.70;37.46;101246.38;5051429;28;20180;-60
2021/08/16 08:01:21;;;;;;;11.90;6.85;;;;;;;28.78;37.62;101235.88;5051944;28;20215;-62
2021/08/16 08:03:47;;;;;;;10.18;6.80;;;;;;;28.88;37.74;101243.50;5035721;28;20184;-61
2021/08/16 08:06:12;;;;;;;10.73;6.63;;;;;;;28.85;36.38;101238.06;5064368;28;20672;-61
2021/08/16 08:08:38;;;;;;;10.85;6.25;;;;;;;28.91;36.79;101236.69;5040471;28;20200;-61
2021/08/16 08:11:03;;;;;;;11.70;5.93;;;;;;;28.99;36.10;101249.03;5051511;28;20654;-61
2021/08/16 08:13:29;;;;;;;10.98;6.57;;;;;;;29.13;35.28;101246.97;5051530;28;20176;-61
2021/08/16 08:15:55;;;;;;;11.15;6.00;;;;;;;29.29;37.44;101248.72;5051004;28;20188;-77
2021/08/16 08:18:21;;;;;;;9.32;5.72;;;;;;;29.47;37.51;101239.28;5069400;28;20377;-67
2021/08/16 08:20:47;;;;;;;9.38;6.03;;;;;;;29.64;37.02;101242.63;5060233;28;20192;-66
2021/08/16 08:23:12;;;;;;;11.57;6.00;;;;;;;29.80;36.74;101227.22;5049957;28;20421;-77
2021/08/16 08:25:40;;;;;;;8.35;5.85;;;;;;;29.85;35.58;101203.47;5049893;28;20196;-71
2021/08/16 08:28:11;;;;;;;11.38;5.85;;;;;;;30.15;34.08;101241.00;5049914;28;20671;-70
2021/08/16 08:30:38;;;;;;;11.10;6.10;;;;;;;30.10;34.86;101239.75;5069776;28;20171;-74
2021/08/16 08:33:03;;;;;;;11.50;6.05;;;;;;;30.32;34.53;101241.38;5057969;28;20188;-73
2021/08/16 08:35:29;;;;;;;6.38;4.88;;;;;;;30.34;33.53;101210.91;5049677;28;20179;-69
2021/08/16 08:37:54;;;;;;;7.03;5.10;;;;;;;30.57;32.92;101229.09;5065384;28;20926;-71
2021/08/16 08:40:20;;;;;;;12.52;5.82;;;;;;;30.59;33.62;101222.78;5064636;28;20546;-69
2021/08/16 08:42:52;;;;;;;7.72;5.50;;;;;;;30.55;33.64;101199.50;5050344;28;20236;-70
2021/08/16 08:45:20;;;;;;;8.00;5.47;;;;;;;30.70;33.18;101219.69;5049259;28;20654;-71
2021/08/16 08:47:47;;;;;;;9.80;5.43;;;;;;;30.85;33.75;101219.81;5049279;28;20191;-69
2021/08/16 08:50:15;;;;;;;11.32;6.43;;;;;;;30.81;33.70;101200.13;5049961;28;20172;-71
2021/08/16 08:52:41;;;;;;;11.30;6.25;;;;;;;30.92;33.73;101217.00;5067574;28;20179;-65
2021/08/16 08:55:07;;;;;;;11.63;6.05;;;;;;;30.45;32.69;101153.44;5069224;28;20176;-65
2021/08/16 08:57:37;;;;;;;9.23;6.15;;;;;;;30.94;33.63;101205.00;5053897;28;20707;-66
2021/08/16 09:00:04;;;;;;;7.80;5.45;;;;;;;31.02;31.53;101206.59;5048896;28;20222;-65
2021/08/16 09:02:29;;;;;;;7.97;6.20;;;;;;;31.05;32.39;101202.63;5048969;28;20212;-66
2021/08/16 09:04:56;;;;;;;8.45;5.85;;;;;;;30.79;32.09;101156.22;5055097;28;20176;-65
2021/08/16 09:07:37;;;;;;;8.02;5.95;;;;;;;31.14;32.28;101195.59;5067500;28;20192;-66
2021/08/16 09:10:09;;;;;;;9.65;6.32;;;;;;;31.23;32.70;101195.13;5045992;28;20172;-65
2021/08/16 09:12:36;;;;;;;11.43;5.80;;;;;;;30.94;32.80;101136.31;5046369;28;20169;-66
2021/08/16 09:15:13;;;;;;;9.90;5.68;;;;;;;30.99;32.84;101115.34;5048757;28;20204;-66
2021/08/16 09:17:39;;;;;;;9.70;5.60;;;;;;;31.42;32.42;101147.69;5061970;28;20252;-65
2021/08/16 09:20:18;;;;;;;8.80;5.60;;;;;;;31.80;32.77;101185.91;5058153;28;20649;-66
2021/08/16 09:22:56;;;;;;;11.90;5.85;;;;;;;31.97;32.86;101188.25;5059637;28;20247;-67
2021/08/16 09:25:22;;;;;;;11.95;5.93;;;;;;;31.80;32.57;101145.78;5049969;28;20257;-66
2021/08/16 09:27:48;;;;;;;6.55;5.28;;;;;;;32.10;30.86;101177.38;5058797;28;21007;-65
2021/08/16 09:30:15;;;;;;;7.13;5.30;;;;;;;32.25;30.98;101171.69;5068427;28;20263;-66
2021/08/16 09:32:41;;;;;;;9.77;5.70;;;;;;;32.03;30.07;101125.75;5068353;28;20191;-68
2021/08/16 09:35:09;;;;;;;10.32;5.55;;;;;;;32.28;30.61;101167.72;5067732;28;20659;-67
2021/08/16 09:37:36;;;;;;;12.45;5.88;;;;;;;32.39;29.85;101161.59;5053014;28;20318;-66
2021/08/16 09:40:08;;;;;;;9.63;5.97;;;;;;;32.46;30.06;101157.22;5039419;28;20206;-66
2021/08/16 09:42:48;;;;;;;8.57;5.65;;;;;;;32.42;29.73;101153.97;5068026;28;20184;-67
2021/08/16 09:45:38;;;;;;;13.85;5.63;;;;;;;32.55;29.83;101145.94;5053986;28;20858;-66
2021/08/16 09:48:06;;;;;;;9.25;6.13;;;;;;;32.67;30.35;101147.09;5047067;28;20666;-66
2021/08/16 09:50:48;;;;;;;9.75;6.20;;;;;;;32.77;30.18;101138.66;5060150;28;20225;-68
2021/08/16 09:53:16;;;;;;;11.85;6.35;;;;;;;32.87;29.99;101134.63;5048484;28;20561;-68
2021/08/16 09:55:52;;;;;;;10.70;5.88;;;;;;;33.01;29.73;101138.84;5048058;28;20177;-68
2021/08/16 09:58:19;;;;;;;10.80;6.00;;;;;;;33.13;29.46;101131.38;5047225;28;20654;-67
2021/08/16 10:00:47;;;;;;;13.38;6.30;;;;;;;33.30;29.29;101122.91;5048441;28;20612;-68
2021/08/16 10:03:13;;;;;;;13.32;6.05;;;;;;;33.56;28.83;101098.66;5047582;28;20214;-67
2021/08/16 10:05:41;;;;;;;9.40;6.05;;;;;;;33.90;27.58;101121.88;5046807;28;20681;-67
2021/08/16 10:08:09;;;;;;;9.02;5.20;;;;;;;34.12;27.65;101112.34;5046657;28;20191;-67
2021/08/16 10:10:39;;;;;;;10.30;5.60;;;;;;;34.39;27.95;101107.59;5048254;28;20203;-67
2021/08/16 10:13:06;;;;;;;14.20;5.50;;;;;;;34.62;27.46;101108.13;5062393;28;20199;-67
2021/08/16 10:15:37;;;;;;;11.38;5.90;;;;;;;34.80;27.07;101106.84;5067997;28;20171;-75
2021/08/16 10:18:08;;;;;;;10.45;5.50;;;;;;;34.98;26.61;101100.50;5064149;28;20217;-67
2021/08/16 10:20:35;;;;;;;10.32;4.85;;;;;;;34.99;26.51;101101.25;5067855;28;20741;-65
2021/08/16 10:23:01;;;;;;;24.02;5.93;;;;;;;35.19;26.36;101100.06;5068482;28;20179;-68
2021/08/16 10:25:26;;;;;;;10.68;5.32;;;;;;;35.27;26.95;101089.25;5067609;28;20203;-70
2021/08/16 10:28:02;;;;;;;12.32;5.05;;;;;;;35.42;26.29;101089.81;5067061;28;20680;-71
2021/08/16 10:30:28;;;;;;;4.72;4.22;;;;;;;35.60;25.39;101085.56;5067863;28;20254;-69
2021/08/16 10:33:04;;;;;;;7.53;4.28;;;;;;;35.57;25.53;101078.09;5057897;28;20347;-64
2021/08/16 10:35:40;;;;;;;9.32;4.00;;;;;;;35.74;24.59;101080.97;5051627;28;20168;-64
2021/08/16 10:38:10;;;;;;;8.40;4.60;;;;;;;35.83;24.65;101074.47;5068873;28;20207;-64
2021/08/16 10:41:05;;;;;;;8.70;3.97;;;;;;;35.94;24.33;101079.69;5058394;28;20345;-64
2021/08/16 10:43:34;;;;;;;5.75;4.07;;;;;;;36.09;23.65;101070.06;5051327;28;20247;-64
2021/08/16 10:45:59;;;;;;;6.15;4.07;;;;;;;36.24;24.00;101075.59;5064992;28;20568;-64
2021/08/16 10:48:32;;;;;;;6.63;4.18;;;;;;;36.20;24.11;101069.50;5072813;28;20206;-62
2021/08/16 10:51:21;;;;;;;6.35;4.10;;;;;;;36.43;24.13;101067.00;5073556;28;20176;-62
2021/08/16 10:53:54;;;;;;;6.82;3.80;;;;;;;36.61;23.59;101056.88;5053771;28;20192;-61
2021/08/16 10:56:22;;;;;;;5.05;3.83;;;;;;;36.75;22.79;101063.75;5055931;28;20666;-61
2021/08/16 10:58:49;;;;;;;6.20;3.88;;;;;;;36.51;22.88;101010.66;5055408;28;20183;-63
2021/08/16 11:01:35;;;;;;;4.90;3.72;;;;;;;37.00;22.35;101052.69;5072638;28;20294;-70
2021/08/16 11:04:06;;;;;;;5.07;3.30;;;;;;;37.09;22.69;101049.78;5071866;28;20172;-61
2021/08/16 11:06:32;;;;;;;6.03;3.55;;;;;;;37.33;22.13;101039.28;5056236;28;20204;-71
2021/08/16 11:09:03;;;;;;;6.50;3.95;;;;;;;37.48;21.90;101036.84;5053690;28;20700;-65
2021/08/16 11:11:30;;;;;;;7.00;4.00;;;;;;;37.53;21.24;101024.19;5052563;28;20594;-64
2021/08/16 11:14:07;;;;;;;5.95;4.00;;;;;;;37.50;21.65;101021.75;5052528;28;20250;-62
2021/08/16 11:16:32;;;;;;;6.45;3.70;;;;;;;37.55;20.61;101017.81;5061423;28;20582;-65
2021/08/16 11:18:58;;;;;;;6.68;3.45;;;;;;;37.69;20.09;101013.81;5052360;28;20176;-66